Kezdőlap
METAR-TAF:

METAR-TAF

Repülőterek :

Mahacskala, Oroszország

földrajzi szélesség: 42-49-01N, földrajzi hosszúság: 047-39-08E, magasság: 4 m

Jelenlegi meteorológiai megfigyelések

A jelentés 35 perccel ezelõtt készült, 20:00 UTC
Déli szél 12 kt
Hőmérséklet 9°C
Páratartalom 76%
Légköri nyomás 1030 hPa
Látótávolság 10 km, vagy több
Borult 2900 lábon

METAR: URML 172000Z 17006MPS 9999 OVC029 09/05 Q1030 R14/01//70 NOSIG RMK QFE773/1030

Idő: 23:35 (20:35 UTC)

Előrejelzés

A jelentés 35 perccel ezelõtt készült, 20:00 UTC
Az előrejelzés 17-én 21 óra UTC és 18-én 06 óra UTC között érvényes
Délkeleti szél 12 kt széllökések: 23 kt
Látótávolság 10 km, vagy több
Szakadozott felhőzet 2000 lábon
17-én 21 óra UTC és 18-én 03 óra UTC között ideiglenes
Dél-délkeleti szél 17 kt széllökések: 27 kt
Szórványos felhőzet 1100 lábon
Szakadozott felhőzet 1700 lábon

TAF: URML 172000Z 1721/1806 14006G12MPS 9999 BKN020 TEMPO 1721/1803 16009G14MPS SCT011 BKN017

Meteorológiai megfigyelések és előrejelzések több, mint 4000 repülőtéren (METAR és TAF jelentéseket).

A térképen piros és sárga pontok jelzik az elérhető meteorológiai állomásokat.

Mozgassa az egeret a pont fölött, hogy megjelenjen az állomás neve.

Azután kattintson az időjárási megfigyelések és előrejelzések megtekintéséhez.

A térkép megváltoztatása: kattintson a fekete keresztel jelölt zöld gombra ráközelítéshez, a vonallal jelölt zöld gombra távolításhoz, vagy a zöld nyilakra a szomszédos térképek eléréséhez.


METAR-TAF: